Date,TemperatureHighF,TemperatureAvgF,TemperatureLowF,DewpointHighF,DewpointAvgF,DewpointLowF,HumidityHigh,HumidityAvg,HumidityLow,PressureMaxIn,PressureMinIn,WindSpeedMaxMPH,WindSpeedAvgMPH,GustSpeedMaxMPH,PrecipitationSumIn
2012-1-29,81,68,76,59,57,55,51,48,44,30.48,30.43,0,0,0,0.00
2012-2-23,78,78,77,60,60,58,55,54,53,30.25,30.25,114,38,114,0.00
2012-6-27,80,80,80,61,61,60,52,52,52,30.22,30.22,0,0,0,0.00
2012-6-28,80,53,79,100,71,57,46,30,45,81.13,40.00,0,0,0,0.00
2012-7-1,78,75,72,60,55,52,53,51,49,80.60,40.00,0,0,0,0.00
2012-7-2,76,76,76,56,56,56,50,50,50,80.70,40.00,0,0,0,0.00
2012-7-3,76,74,72,56,53,51,49,49,48,80.71,40.00,7,0,7,0.00
2012-7-7,79,79,79,58,58,58,49,49,49,0.00,40.00,0,0,0,0.00
2012-7-11,78,78,78,58,57,57,49,49,49,30.05,30.05,0,0,0,0.00
2012-7-15,80,79,78,58,57,56,48,46,46,30.20,30.19,0,0,0,0.00
2012-7-16,86,85,81,57,57,57,65,60,44,30.14,30.09,12,5,23,0.00
2012-7-25,86,81,78,57,57,57,65,54,47,30.09,30.05,6,4,12,0.00
2012-7-27,86,86,86,57,57,57,65,65,65,30.09,30.09,2,2,3,0.00
2012-7-29,86,86,86,57,57,57,65,65,65,30.09,30.09,2,2,3,0.00
2012-8-3,83,82,79,67,64,58,58,55,46,30.08,30.03,26,2,26,0.00
2012-8-4,86,82,81,73,67,62,65,60,53,30.09,30.02,114,0,114,0.00
2012-8-25,82,82,82,61,61,60,42,42,42,29.90,29.90,6,0,0,0.00
2012-8-26,83,80,78,62,60,52,49,46,43,29.83,29.71,11,0,20,0.00
2012-8-27,76,68,32,61,53,16,60,57,54,29.88,29.85,0,0,0,0.00
2012-8-29,85,83,82,75,71,66,71,65,57,30.05,30.00,14,6,14,0.00
2012-9-1,83,82,80,69,67,58,60,57,44,30.06,30.02,0,0,0,0.00
2012-9-2,87,85,82,73,70,59,61,60,57,30.05,29.97,0,0,0,0.00
2012-9-3,87,85,74,72,70,57,63,59,55,30.03,29.97,1,0,1,0.00
2012-9-4,101,82,32,73,67,11,71,60,41,30.04,29.94,22,0,22,0.00
2012-9-5,84,82,79,71,68,60,67,62,49,30.02,29.92,0,0,1,0.00
2012-9-6,86,83,80,74,71,68,74,66,63,30.04,29.96,27,0,27,0.00
2012-9-7,85,83,80,74,71,67,70,67,65,30.01,29.91,0,0,0,0.00
2012-9-8,87,83,80,75,72,68,71,68,64,29.99,29.88,0,0,0,0.00
2012-9-9,88,85,82,74,72,70,72,65,58,29.98,29.88,0,0,0,0.00
2012-9-10,103,84,81,74,71,64,69,63,51,30.01,29.92,0,0,0,0.00
2012-9-11,88,83,70,76,71,52,75,66,51,30.06,29.97,14,0,14,0.00
2012-9-12,87,82,73,73,71,59,70,67,61,30.07,29.98,0,0,0,0.00
2012-9-13,150,80,32,73,66,-12,71,59,24,30.07,29.97,27,3,27,0.00
2012-9-14,80,80,74,68,68,57,70,67,53,30.03,29.96,0,0,1,0.00
2012-9-15,85,82,81,82,71,62,100,67,40,30.05,29.97,0,0,0,0.00
2012-9-16,87,83,83,78,71,65,81,66,50,30.02,29.96,6,0,6,0.00
2012-9-17,88,84,82,81,72,69,83,66,63,30.02,29.91,0,0,0,0.00
2012-9-18,91,87,84,78,75,18,72,65,61,30.00,29.88,0,0,0,0.00
2012-9-19,89,87,85,77,75,73,69,66,60,30.05,29.91,0,0,0,0.00
2012-9-20,88,86,82,76,72,63,69,62,47,30.05,29.92,4,1,5,0.00
2012-9-21,86,84,82,79,71,65,83,63,52,29.99,29.89,4,0,4,0.00
2012-9-22,85,83,82,74,72,70,75,70,65,30.02,29.91,7,0,7,0.00
2012-9-23,85,83,81,75,72,67,75,70,58,30.05,29.98,27,0,27,0.00
2012-9-24,87,83,81,75,72,67,76,70,56,30.06,29.98,0,0,0,0.00
2012-12-5,80,76,72,66,64,60,79,67,49,30.09,29.99,15,3,16,0.00
2012-12-6,81,75,70,71,67,64,94,79,58,29.99,29.88,43,3,43,0.00
2012-12-7,82,75,69,73,68,66,97,81,58,29.96,29.87,19,3,19,0.00
2012-12-8,86,77,70,74,70,68,98,82,62,30.01,29.92,22,4,22,0.00
2012-12-9,85,77,72,75,73,69,97,87,68,30.07,29.96,13,2,13,0.00
2012-12-10,84,77,70,77,73,69,100,85,69,30.00,29.87,27,7,27,0.00
2012-12-11,85,76,71,74,72,68,96,86,63,30.07,29.91,21,6,21,0.00
2012-12-12,81,76,72,73,71,68,98,85,66,30.09,30.01,26,5,44,0.00
2012-12-13,75,71,65,73,68,63,97,91,78,30.11,30.01,26,8,26,0.00
2012-12-14,77,70,64,67,63,58,99,81,49,30.14,30.05,29,8,32,0.00
2012-12-15,77,72,66,68,64,61,97,76,62,30.12,30.02,30,5,30,0.00
2012-12-16,78,72,67,70,67,63,96,85,67,30.05,29.95,16,3,16,0.00
2012-12-17,80,73,66,69,67,63,99,80,57,29.98,29.88,20,3,20,0.00
2012-12-18,82,74,68,70,67,63,100,80,55,30.01,29.90,20,3,20,0.00
2012-12-19,81,72,62,65,60,56,83,65,38,30.10,30.01,12,3,12,0.00
2012-12-20,78,74,65,68,64,60,96,70,51,30.10,29.96,22,8,22,0.00
2012-12-21,70,62,50,67,49,35,94,59,29,30.17,29.94,33,12,35,0.00
2012-12-22,69,54,44,42,34,27,59,40,20,30.25,30.16,22,8,24,0.00
2012-12-23,70,60,48,55,45,32,77,56,39,30.24,30.14,18,4,19,0.00
2012-12-24,74,66,58,61,56,51,89,68,48,30.14,29.99,20,4,22,0.00
2012-12-25,78,69,60,64,60,23,95,73,54,30.05,29.93,24,5,24,0.00
2012-12-26,80,72,61,69,65,57,94,77,55,29.98,29.82,35,10,35,0.00
2012-12-27,82,60,52,58,50,44,93,67,25,30.07,29.97,19,4,19,0.00
2012-12-28,73,66,55,69,62,51,91,82,66,30.09,29.97,20,5,20,0.00
2012-12-29,79,72,59,72,68,53,95,83,65,30.10,29.91,27,9,51,0.00
2012-12-30,65,59,49,56,50,43,87,73,61,30.29,30.10,32,12,32,0.00
2012-12-31,71,67,64,59,56,52,71,64,58,30.31,30.19,24,8,24,0.00
2013-1-1,75,70,63,62,60,57,89,67,55,30.20,30.05,32,6,32,0.00